sensor_id;sensor_type;location;lat;lon;timestamp;pressure;altitude;pressure_sealevel;temperature;humidity
30081;BME280;16902;50.816;12.828;2022-08-21T00:01:19;97817.03;;;16.76;100.00
30081;BME280;16902;50.816;12.828;2022-08-21T00:06:22;97805.06;;;16.80;100.00
30081;BME280;16902;50.816;12.828;2022-08-21T00:11:25;97806.75;;;16.74;100.00
30081;BME280;16902;50.816;12.828;2022-08-21T00:16:28;97814.06;;;16.65;100.00
30081;BME280;16902;50.816;12.828;2022-08-21T00:21:30;97810.50;;;16.60;100.00
30081;BME280;16902;50.816;12.828;2022-08-21T00:26:31;97806.47;;;16.57;100.00
30081;BME280;16902;50.816;12.828;2022-08-21T00:31:33;97808.91;;;16.59;100.00
30081;BME280;16902;50.816;12.828;2022-08-21T00:36:35;97802.75;;;16.65;100.00
30081;BME280;16902;50.816;12.828;2022-08-21T00:41:38;97802.59;;;16.60;100.00
30081;BME280;16902;50.816;12.828;2022-08-21T00:46:40;97809.19;;;16.69;100.00
30081;BME280;16902;50.816;12.828;2022-08-21T00:51:49;97797.47;;;16.72;100.00
30081;BME280;16902;50.816;12.828;2022-08-21T00:56:55;97795.38;;;16.55;100.00
30081;BME280;16902;50.816;12.828;2022-08-21T01:02:00;97796.28;;;16.42;100.00
30081;BME280;16902;50.816;12.828;2022-08-21T01:07:02;97799.38;;;16.39;100.00
30081;BME280;16902;50.816;12.828;2022-08-21T01:12:05;97798.38;;;16.34;100.00
30081;BME280;16902;50.816;12.828;2022-08-21T01:17:07;97793.84;;;16.23;100.00
30081;BME280;16902;50.816;12.828;2022-08-21T01:22:09;97792.50;;;16.13;100.00
30081;BME280;16902;50.816;12.828;2022-08-21T01:27:11;97793.94;;;16.09;100.00
30081;BME280;16902;50.816;12.828;2022-08-21T01:32:16;97794.63;;;15.98;100.00
30081;BME280;16902;50.816;12.828;2022-08-21T01:37:20;97785.19;;;15.90;100.00
30081;BME280;16902;50.816;12.828;2022-08-21T01:42:23;97788.09;;;15.82;100.00
30081;BME280;16902;50.816;12.828;2022-08-21T01:47:24;97789.75;;;15.77;100.00
30081;BME280;16902;50.816;12.828;2022-08-21T01:52:26;97795.41;;;15.74;100.00
30081;BME280;16902;50.816;12.828;2022-08-21T01:57:28;97792.38;;;15.70;100.00
30081;BME280;16902;50.816;12.828;2022-08-21T02:02:30;97791.28;;;15.84;100.00
30081;BME280;16902;50.816;12.828;2022-08-21T02:07:53;97791.75;;;16.06;100.00
30081;BME280;16902;50.816;12.828;2022-08-21T02:12:56;97794.31;;;16.13;100.00
30081;BME280;16902;50.816;12.828;2022-08-21T02:18:00;97787.56;;;16.24;100.00
30081;BME280;16902;50.816;12.828;2022-08-21T02:23:04;97784.34;;;16.22;100.00
30081;BME280;16902;50.816;12.828;2022-08-21T02:28:10;97780.28;;;16.26;100.00
30081;BME280;16902;50.816;12.828;2022-08-21T02:33:12;97779.84;;;16.29;100.00
30081;BME280;16902;50.816;12.828;2022-08-21T02:38:17;97780.47;;;16.24;100.00
30081;BME280;16902;50.816;12.828;2022-08-21T02:43:22;97775.59;;;16.28;100.00
30081;BME280;16902;50.816;12.828;2022-08-21T02:48:27;97783.88;;;16.31;100.00
30081;BME280;16902;50.816;12.828;2022-08-21T02:53:30;97781.31;;;16.25;100.00
30081;BME280;16902;50.816;12.828;2022-08-21T02:58:36;97782.75;;;16.21;100.00
30081;BME280;16902;50.816;12.828;2022-08-21T03:03:43;97778.72;;;16.18;100.00
30081;BME280;16902;50.816;12.828;2022-08-21T03:08:45;97779.97;;;16.15;100.00
30081;BME280;16902;50.816;12.828;2022-08-21T03:13:47;97775.53;;;16.09;100.00
30081;BME280;16902;50.816;12.828;2022-08-21T03:18:48;97778.22;;;16.03;100.00
30081;BME280;16902;50.816;12.828;2022-08-21T03:23:50;97773.63;;;15.98;100.00
30081;BME280;16902;50.816;12.828;2022-08-21T03:28:52;97774.41;;;15.99;100.00
30081;BME280;16902;50.816;12.828;2022-08-21T03:33:54;97788.75;;;16.03;100.00
30081;BME280;16902;50.816;12.828;2022-08-21T03:38:56;97792.38;;;16.02;100.00
30081;BME280;16902;50.816;12.828;2022-08-21T03:43:58;97793.50;;;16.12;100.00
30081;BME280;16902;50.816;12.828;2022-08-21T03:49:00;97790.47;;;16.15;100.00
30081;BME280;16902;50.816;12.828;2022-08-21T03:54:02;97788.19;;;16.19;100.00
30081;BME280;16902;50.816;12.828;2022-08-21T03:59:05;97799.97;;;16.10;100.00
30081;BME280;16902;50.816;12.828;2022-08-21T04:04:06;97794.53;;;16.11;100.00
30081;BME280;16902;50.816;12.828;2022-08-21T04:09:08;97799.88;;;16.23;100.00
30081;BME280;16902;50.816;12.828;2022-08-21T04:14:10;97796.69;;;16.21;100.00
30081;BME280;16902;50.816;12.828;2022-08-21T04:19:12;97809.00;;;16.21;100.00
30081;BME280;16902;50.816;12.828;2022-08-21T04:24:17;97809.75;;;16.28;100.00
30081;BME280;16902;50.816;12.828;2022-08-21T04:29:19;97813.19;;;16.28;100.00
30081;BME280;16902;50.816;12.828;2022-08-21T04:34:21;97819.38;;;16.40;100.00
30081;BME280;16902;50.816;12.828;2022-08-21T04:39:22;97818.50;;;16.47;100.00
30081;BME280;16902;50.816;12.828;2022-08-21T04:44:30;97818.25;;;16.48;100.00
30081;BME280;16902;50.816;12.828;2022-08-21T04:49:32;97828.34;;;16.51;100.00
30081;BME280;16902;50.816;12.828;2022-08-21T04:54:34;97839.59;;;16.58;100.00
30081;BME280;16902;50.816;12.828;2022-08-21T04:59:42;97836.31;;;16.63;100.00
30081;BME280;16902;50.816;12.828;2022-08-21T05:04:51;97835.66;;;16.74;100.00
30081;BME280;16902;50.816;12.828;2022-08-21T05:09:54;97838.00;;;16.82;100.00
30081;BME280;16902;50.816;12.828;2022-08-21T05:14:56;97839.31;;;16.91;100.00
30081;BME280;16902;50.816;12.828;2022-08-21T05:19:58;97837.75;;;17.09;100.00
30081;BME280;16902;50.816;12.828;2022-08-21T05:24:59;97841.03;;;17.23;100.00
30081;BME280;16902;50.816;12.828;2022-08-21T05:30:02;97849.41;;;17.50;100.00
30081;BME280;16902;50.816;12.828;2022-08-21T05:35:06;97843.84;;;17.58;100.00
30081;BME280;16902;50.816;12.828;2022-08-21T05:40:08;97848.28;;;17.76;100.00
30081;BME280;16902;50.816;12.828;2022-08-21T05:45:29;97847.97;;;17.84;100.00
30081;BME280;16902;50.816;12.828;2022-08-21T05:50:46;97846.53;;;18.00;100.00
30081;BME280;16902;50.816;12.828;2022-08-21T05:55:48;97848.84;;;18.08;100.00
30081;BME280;16902;50.816;12.828;2022-08-21T06:00:51;97846.81;;;18.21;100.00
30081;BME280;16902;50.816;12.828;2022-08-21T06:05:54;97840.66;;;18.39;100.00
30081;BME280;16902;50.816;12.828;2022-08-21T06:10:58;97848.25;;;18.59;100.00
30081;BME280;16902;50.816;12.828;2022-08-21T06:16:11;97845.47;;;18.66;100.00
30081;BME280;16902;50.816;12.828;2022-08-21T06:21:16;97848.94;;;18.90;100.00
30081;BME280;16902;50.816;12.828;2022-08-21T06:26:18;97852.16;;;19.15;100.00
30081;BME280;16902;50.816;12.828;2022-08-21T06:31:23;97851.88;;;19.29;100.00
30081;BME280;16902;50.816;12.828;2022-08-21T06:36:25;97852.94;;;19.16;100.00
30081;BME280;16902;50.816;12.828;2022-08-21T06:41:27;97851.09;;;19.16;100.00
30081;BME280;16902;50.816;12.828;2022-08-21T06:46:29;97852.38;;;19.14;100.00
30081;BME280;16902;50.816;12.828;2022-08-21T06:51:31;97853.19;;;19.03;100.00
30081;BME280;16902;50.816;12.828;2022-08-21T06:56:33;97851.66;;;19.18;100.00
30081;BME280;16902;50.816;12.828;2022-08-21T07:01:36;97851.06;;;19.40;100.00
30081;BME280;16902;50.816;12.828;2022-08-21T07:06:38;97859.47;;;19.25;100.00
30081;BME280;16902;50.816;12.828;2022-08-21T07:11:40;97858.69;;;19.13;100.00
30081;BME280;16902;50.816;12.828;2022-08-21T07:16:48;97859.84;;;19.05;100.00
30081;BME280;16902;50.816;12.828;2022-08-21T07:21:57;97867.44;;;19.02;100.00
30081;BME280;16902;50.816;12.828;2022-08-21T07:26:59;97862.03;;;18.96;100.00
30081;BME280;16902;50.816;12.828;2022-08-21T07:32:01;97859.78;;;19.29;100.00
30081;BME280;16902;50.816;12.828;2022-08-21T07:37:03;97863.41;;;19.51;100.00
30081;BME280;16902;50.816;12.828;2022-08-21T07:42:10;97867.22;;;19.43;100.00
30081;BME280;16902;50.816;12.828;2022-08-21T07:47:12;97862.69;;;19.67;100.00
30081;BME280;16902;50.816;12.828;2022-08-21T07:52:13;97867.53;;;19.99;100.00
30081;BME280;16902;50.816;12.828;2022-08-21T07:57:15;97864.72;;;20.06;100.00
30081;BME280;16902;50.816;12.828;2022-08-21T08:02:26;97864.91;;;20.33;100.00
30081;BME280;16902;50.816;12.828;2022-08-21T08:07:28;97874.19;;;20.18;100.00
30081;BME280;16902;50.816;12.828;2022-08-21T08:12:30;97876.22;;;20.28;100.00
30081;BME280;16902;50.816;12.828;2022-08-21T08:17:32;97866.34;;;20.23;100.00
30081;BME280;16902;50.816;12.828;2022-08-21T08:22:35;97873.28;;;20.58;100.00
30081;BME280;16902;50.816;12.828;2022-08-21T08:27:38;97876.53;;;20.99;100.00
30081;BME280;16902;50.816;12.828;2022-08-21T08:32:40;97873.59;;;21.17;100.00
30081;BME280;16902;50.816;12.828;2022-08-21T08:37:42;97865.53;;;21.07;100.00
30081;BME280;16902;50.816;12.828;2022-08-21T08:42:53;97873.28;;;21.30;100.00
30081;BME280;16902;50.816;12.828;2022-08-21T08:48:01;97876.16;;;21.73;100.00
30081;BME280;16902;50.816;12.828;2022-08-21T08:53:07;97878.56;;;21.74;100.00
30081;BME280;16902;50.816;12.828;2022-08-21T08:58:18;97880.97;;;21.54;100.00
30081;BME280;16902;50.816;12.828;2022-08-21T09:03:26;97881.44;;;20.73;100.00
30081;BME280;16902;50.816;12.828;2022-08-21T09:14:14;97883.63;;;21.54;100.00
30081;BME280;16902;50.816;12.828;2022-08-21T09:19:28;97875.44;;;20.78;100.00
30081;BME280;16902;50.816;12.828;2022-08-21T09:24:40;97876.31;;;21.22;100.00
30081;BME280;16902;50.816;12.828;2022-08-21T09:29:53;97873.19;;;21.69;100.00
30081;BME280;16902;50.816;12.828;2022-08-21T09:35:01;97874.81;;;22.19;100.00
30081;BME280;16902;50.816;12.828;2022-08-21T09:40:19;97873.44;;;22.17;100.00
30081;BME280;16902;50.816;12.828;2022-08-21T09:45:22;97870.31;;;21.49;100.00
30081;BME280;16902;50.816;12.828;2022-08-21T09:50:27;97865.19;;;22.13;100.00
30081;BME280;16902;50.816;12.828;2022-08-21T10:00:59;97862.00;;;21.62;100.00
30081;BME280;16902;50.816;12.828;2022-08-21T10:06:03;97859.47;;;21.99;100.00
30081;BME280;16902;50.816;12.828;2022-08-21T10:11:13;97854.91;;;22.49;100.00
30081;BME280;16902;50.816;12.828;2022-08-21T10:44:56;97856.41;;;24.13;100.00
30081;BME280;16902;50.816;12.828;2022-08-21T10:50:23;97847.69;;;24.43;100.00
30081;BME280;16902;50.816;12.828;2022-08-21T10:55:55;97854.03;;;24.82;100.00
30081;BME280;16902;50.816;12.828;2022-08-21T11:01:07;97850.97;;;26.63;100.00
30081;BME280;16902;50.816;12.828;2022-08-21T11:06:31;97848.16;;;26.15;100.00
30081;BME280;16902;50.816;12.828;2022-08-21T11:11:41;97843.69;;;24.45;100.00
30081;BME280;16902;50.816;12.828;2022-08-21T11:17:12;97847.56;;;25.29;100.00
30081;BME280;16902;50.816;12.828;2022-08-21T11:22:24;97850.47;;;25.87;100.00
30081;BME280;16902;50.816;12.828;2022-08-21T11:38:28;97839.63;;;25.69;100.00
30081;BME280;16902;50.816;12.828;2022-08-21T11:43:45;97841.47;;;26.18;100.00
30081;BME280;16902;50.816;12.828;2022-08-21T11:49:02;97832.81;;;25.92;100.00
30081;BME280;16902;50.816;12.828;2022-08-21T11:54:27;97822.69;;;25.94;100.00
30081;BME280;16902;50.816;12.828;2022-08-21T11:59:43;97821.50;;;25.01;100.00
30081;BME280;16902;50.816;12.828;2022-08-21T12:04:56;97813.88;;;24.23;100.00
30081;BME280;16902;50.816;12.828;2022-08-21T12:10:04;97822.44;;;28.30;100.00
30081;BME280;16902;50.816;12.828;2022-08-21T12:25:37;97825.84;;;33.11;72.08
30081;BME280;16902;50.816;12.828;2022-08-21T12:30:44;97816.13;;;28.39;88.08
30081;BME280;16902;50.816;12.828;2022-08-21T12:35:47;97819.84;;;28.71;90.60
30081;BME280;16902;50.816;12.828;2022-08-21T12:40:54;97811.47;;;29.05;86.10
30081;BME280;16902;50.816;12.828;2022-08-21T12:45:58;97811.09;;;31.14;77.26
30081;BME280;16902;50.816;12.828;2022-08-21T12:51:16;97807.25;;;33.47;65.83
30081;BME280;16902;50.816;12.828;2022-08-21T12:56:20;97802.63;;;30.81;73.46
30081;BME280;16902;50.816;12.828;2022-08-21T13:01:32;97796.97;;;33.83;63.39
30081;BME280;16902;50.816;12.828;2022-08-21T13:06:44;97804.09;;;37.81;47.97
30081;BME280;16902;50.816;12.828;2022-08-21T13:11:48;97796.91;;;33.91;54.47
30081;BME280;16902;50.816;12.828;2022-08-21T13:16:58;97798.94;;;32.55;58.87
30081;BME280;16902;50.816;12.828;2022-08-21T13:22:00;97801.69;;;35.10;50.41
30081;BME280;16902;50.816;12.828;2022-08-21T13:27:25;97798.91;;;35.59;47.17
30081;BME280;16902;50.816;12.828;2022-08-21T13:32:29;97799.94;;;37.68;45.61
30081;BME280;16902;50.816;12.828;2022-08-21T13:37:31;97811.91;;;40.04;39.19
30081;BME280;16902;50.816;12.828;2022-08-21T13:42:33;97795.53;;;36.62;43.07
30081;BME280;16902;50.816;12.828;2022-08-21T13:47:35;97789.63;;;33.20;55.09
30081;BME280;16902;50.816;12.828;2022-08-21T13:52:47;97799.53;;;35.80;43.36
30081;BME280;16902;50.816;12.828;2022-08-21T13:57:59;97804.88;;;39.13;36.57
30081;BME280;16902;50.816;12.828;2022-08-21T14:03:07;97801.13;;;41.73;33.34
30081;BME280;16902;50.816;12.828;2022-08-21T14:08:18;97795.44;;;43.31;31.62
30081;BME280;16902;50.816;12.828;2022-08-21T14:18:52;97786.94;;;42.62;31.27
30081;BME280;16902;50.816;12.828;2022-08-21T14:24:39;97776.91;;;36.76;38.35
30081;BME280;16902;50.816;12.828;2022-08-21T14:29:39;97775.19;;;35.68;40.69
30081;BME280;16902;50.816;12.828;2022-08-21T14:34:44;97785.22;;;40.20;35.75
30081;BME280;16902;50.816;12.828;2022-08-21T14:39:47;97778.22;;;42.09;31.61
30081;BME280;16902;50.816;12.828;2022-08-21T14:44:48;97777.41;;;41.88;31.44
30081;BME280;16902;50.816;12.828;2022-08-21T14:49:50;97773.59;;;43.10;30.60
30081;BME280;16902;50.816;12.828;2022-08-21T14:54:55;97763.53;;;33.96;40.31
30081;BME280;16902;50.816;12.828;2022-08-21T14:59:57;97764.28;;;33.42;47.06
30081;BME280;16902;50.816;12.828;2022-08-21T15:05:03;97751.97;;;33.03;43.20
30081;BME280;16902;50.816;12.828;2022-08-21T15:10:05;97741.91;;;29.95;54.65
30081;BME280;16902;50.816;12.828;2022-08-21T15:15:10;97751.03;;;27.92;56.68
30081;BME280;16902;50.816;12.828;2022-08-21T15:20:12;97747.78;;;27.20;65.32
30081;BME280;16902;50.816;12.828;2022-08-21T15:25:16;97746.50;;;26.94;67.53
30081;BME280;16902;50.816;12.828;2022-08-21T15:30:17;97743.38;;;27.29;66.23
30081;BME280;16902;50.816;12.828;2022-08-21T15:35:19;97741.94;;;26.94;67.58
30081;BME280;16902;50.816;12.828;2022-08-21T15:40:21;97740.00;;;26.23;66.93
30081;BME280;16902;50.816;12.828;2022-08-21T15:45:24;97737.28;;;25.99;72.53
30081;BME280;16902;50.816;12.828;2022-08-21T15:50:26;97735.47;;;25.00;74.78
30081;BME280;16902;50.816;12.828;2022-08-21T15:55:29;97735.06;;;25.32;77.79
30081;BME280;16902;50.816;12.828;2022-08-21T16:00:34;97733.50;;;25.26;77.19
30081;BME280;16902;50.816;12.828;2022-08-21T16:05:36;97731.03;;;24.70;80.67
30081;BME280;16902;50.816;12.828;2022-08-21T16:10:39;97733.28;;;24.27;83.17
30081;BME280;16902;50.816;12.828;2022-08-21T16:15:41;97739.41;;;24.18;88.40
30081;BME280;16902;50.816;12.828;2022-08-21T16:20:43;97730.09;;;23.79;87.39
30081;BME280;16902;50.816;12.828;2022-08-21T16:25:45;97728.72;;;23.62;90.63
30081;BME280;16902;50.816;12.828;2022-08-21T16:30:49;97724.03;;;22.96;96.34
30081;BME280;16902;50.816;12.828;2022-08-21T16:35:51;97723.47;;;22.36;100.00
30081;BME280;16902;50.816;12.828;2022-08-21T16:40:54;97718.91;;;22.26;100.00
30081;BME280;16902;50.816;12.828;2022-08-21T16:45:56;97717.31;;;22.25;100.00
30081;BME280;16902;50.816;12.828;2022-08-21T16:50:58;97708.41;;;22.10;100.00
30081;BME280;16902;50.816;12.828;2022-08-21T16:56:00;97706.97;;;21.92;100.00
30081;BME280;16902;50.816;12.828;2022-08-21T17:01:05;97704.28;;;21.54;100.00
30081;BME280;16902;50.816;12.828;2022-08-21T17:06:08;97705.94;;;21.12;100.00
30081;BME280;16902;50.816;12.828;2022-08-21T17:11:19;97708.00;;;20.83;100.00
30081;BME280;16902;50.816;12.828;2022-08-21T17:16:40;97708.66;;;20.73;100.00
30081;BME280;16902;50.816;12.828;2022-08-21T17:21:43;97716.75;;;20.44;100.00
30081;BME280;16902;50.816;12.828;2022-08-21T17:26:44;97712.63;;;20.32;100.00
30081;BME280;16902;50.816;12.828;2022-08-21T17:31:46;97714.94;;;20.11;100.00
30081;BME280;16902;50.816;12.828;2022-08-21T17:36:48;97722.34;;;19.92;100.00
30081;BME280;16902;50.816;12.828;2022-08-21T17:41:50;97716.88;;;19.65;100.00
30081;BME280;16902;50.816;12.828;2022-08-21T17:46:58;97714.78;;;19.39;100.00
30081;BME280;16902;50.816;12.828;2022-08-21T17:52:00;97717.88;;;19.19;100.00
30081;BME280;16902;50.816;12.828;2022-08-21T17:57:02;97719.31;;;18.98;100.00
30081;BME280;16902;50.816;12.828;2022-08-21T18:02:05;97726.94;;;18.71;100.00
30081;BME280;16902;50.816;12.828;2022-08-21T18:07:21;97728.91;;;18.40;100.00
30081;BME280;16902;50.816;12.828;2022-08-21T18:12:33;97735.66;;;18.13;100.00
30081;BME280;16902;50.816;12.828;2022-08-21T18:17:35;97748.84;;;17.89;100.00
30081;BME280;16902;50.816;12.828;2022-08-21T18:22:37;97744.66;;;17.70;100.00
30081;BME280;16902;50.816;12.828;2022-08-21T18:27:40;97752.06;;;17.61;100.00
30081;BME280;16902;50.816;12.828;2022-08-21T18:32:44;97753.00;;;17.37;100.00
30081;BME280;16902;50.816;12.828;2022-08-21T18:37:46;97756.69;;;17.17;100.00
30081;BME280;16902;50.816;12.828;2022-08-21T18:42:48;97766.72;;;17.09;100.00
30081;BME280;16902;50.816;12.828;2022-08-21T18:47:57;97768.91;;;16.93;100.00
30081;BME280;16902;50.816;12.828;2022-08-21T18:52:59;97768.53;;;16.72;100.00
30081;BME280;16902;50.816;12.828;2022-08-21T18:58:01;97773.25;;;16.44;100.00
30081;BME280;16902;50.816;12.828;2022-08-21T19:03:03;97770.59;;;16.19;100.00
30081;BME280;16902;50.816;12.828;2022-08-21T19:08:10;97770.78;;;16.00;100.00
30081;BME280;16902;50.816;12.828;2022-08-21T19:13:16;97773.28;;;15.88;100.00
30081;BME280;16902;50.816;12.828;2022-08-21T19:18:20;97774.00;;;15.77;100.00
30081;BME280;16902;50.816;12.828;2022-08-21T19:23:44;97774.88;;;15.57;100.00
30081;BME280;16902;50.816;12.828;2022-08-21T19:28:56;97775.75;;;15.45;100.00
30081;BME280;16902;50.816;12.828;2022-08-21T19:34:23;97786.34;;;15.25;100.00
30081;BME280;16902;50.816;12.828;2022-08-21T19:39:26;97787.22;;;15.05;100.00
30081;BME280;16902;50.816;12.828;2022-08-21T19:44:29;97781.63;;;14.88;100.00
30081;BME280;16902;50.816;12.828;2022-08-21T19:49:32;97776.44;;;14.69;100.00
30081;BME280;16902;50.816;12.828;2022-08-21T19:54:35;97785.34;;;14.54;100.00
30081;BME280;16902;50.816;12.828;2022-08-21T19:59:38;97790.97;;;14.45;100.00
30081;BME280;16902;50.816;12.828;2022-08-21T20:04:41;97787.75;;;14.36;100.00
30081;BME280;16902;50.816;12.828;2022-08-21T20:09:55;97778.69;;;14.19;100.00
30081;BME280;16902;50.816;12.828;2022-08-21T20:14:57;97781.50;;;14.04;100.00
30081;BME280;16902;50.816;12.828;2022-08-21T20:19:59;97780.28;;;14.06;100.00
30081;BME280;16902;50.816;12.828;2022-08-21T20:25:02;97779.09;;;13.96;100.00
30081;BME280;16902;50.816;12.828;2022-08-21T20:30:05;97775.06;;;13.80;100.00
30081;BME280;16902;50.816;12.828;2022-08-21T20:35:08;97774.81;;;13.68;100.00
30081;BME280;16902;50.816;12.828;2022-08-21T20:40:15;97779.25;;;13.54;100.00
30081;BME280;16902;50.816;12.828;2022-08-21T20:45:25;97775.56;;;13.42;100.00
30081;BME280;16902;50.816;12.828;2022-08-21T20:50:29;97774.56;;;13.36;100.00
30081;BME280;16902;50.816;12.828;2022-08-21T20:55:34;97773.91;;;13.28;100.00
30081;BME280;16902;50.816;12.828;2022-08-21T21:00:40;97775.53;;;13.22;100.00
30081;BME280;16902;50.816;12.828;2022-08-21T21:05:47;97772.63;;;13.10;100.00
30081;BME280;16902;50.816;12.828;2022-08-21T21:10:55;97776.00;;;13.04;100.00
30081;BME280;16902;50.816;12.828;2022-08-21T21:16:15;97769.31;;;12.89;100.00
30081;BME280;16902;50.816;12.828;2022-08-21T21:21:25;97768.44;;;12.75;100.00
30081;BME280;16902;50.816;12.828;2022-08-21T21:31:52;97766.72;;;12.54;100.00
30081;BME280;16902;50.816;12.828;2022-08-21T21:37:07;97773.91;;;12.52;100.00
30081;BME280;16902;50.816;12.828;2022-08-21T21:48:09;97770.25;;;12.40;100.00
30081;BME280;16902;50.816;12.828;2022-08-21T22:04:26;97762.66;;;12.17;100.00
30081;BME280;16902;50.816;12.828;2022-08-21T22:14:40;97771.56;;;12.01;100.00
30081;BME280;16902;50.816;12.828;2022-08-21T22:19:43;97770.06;;;11.92;100.00
30081;BME280;16902;50.816;12.828;2022-08-21T22:24:52;97768.28;;;11.92;100.00
30081;BME280;16902;50.816;12.828;2022-08-21T22:29:59;97772.63;;;11.85;100.00
30081;BME280;16902;50.816;12.828;2022-08-21T22:40:23;97768.50;;;11.76;100.00
30081;BME280;16902;50.816;12.828;2022-08-21T22:45:27;97773.47;;;11.71;100.00
30081;BME280;16902;50.816;12.828;2022-08-21T22:50:31;97776.41;;;11.61;100.00
30081;BME280;16902;50.816;12.828;2022-08-21T22:55:41;97775.31;;;11.55;100.00
30081;BME280;16902;50.816;12.828;2022-08-21T23:00:55;97781.09;;;11.51;100.00
30081;BME280;16902;50.816;12.828;2022-08-21T23:05:59;97781.00;;;11.44;100.00
30081;BME280;16902;50.816;12.828;2022-08-21T23:11:16;97773.19;;;11.44;100.00
30081;BME280;16902;50.816;12.828;2022-08-21T23:22:01;97768.66;;;11.31;100.00
30081;BME280;16902;50.816;12.828;2022-08-21T23:27:21;97778.81;;;11.26;100.00
30081;BME280;16902;50.816;12.828;2022-08-21T23:33:08;97771.28;;;11.17;100.00
